Back to Top

Language: 

My Weather Underground Personal Weather Station Historical Data with Graphs...

Delerius Weather Station Historical Data
Daily Summary for August 3, 2017 Units:  Metric    English   Both
« Previous Day
Next Day »
Daily Weekly Monthly Yearly Custom
  High: Low: Average:
Temperature: 21.3 °C 14.3 °C 17.1 °C
Dew Point: 15.8 °C 12.4 °C 13.5 °C
Humidity: 93 % 63 % 80 %
Wind Speed: 30.6 km/h 1.6 km/h 16.4 km/h
Wind Gust: 49.9 km/h - -
Wind:- - SW
Pressure: 1003.6 hPa 998.2 hPa -
Precipitation: 0 mm    
Historical Graphs
 
 
Tabular Data for August 3, 2017
Time Temperature Dew Point Pressure Wind Wind Speed Wind Gust Humidity Rainfall Rate (Hourly) solar Conditions
00:04 16.9 °C 15.8 °C 1001.2 hPa SW 9.7 km/h 16.1 km/h 93 % 0 mm 0 W/m2
00:09 16.8 °C 15.7 °C 1000.9 hPa SW 9.7 km/h 14.5 km/h 93 % 0 mm 0 W/m2
00:14 16.7 °C 15.6 °C 1000.9 hPa SW 11.3 km/h 16.1 km/h 93 % 0 mm 0 W/m2
00:19 16.7 °C 15.6 °C 1000.9 hPa SW 9.7 km/h 16.1 km/h 93 % 0 mm 0 W/m2
00:24 16.6 °C 15.4 °C 1000.9 hPa SW 9.7 km/h 16.1 km/h 93 % 0 mm 0 W/m2
00:29 16.5 °C 15.2 °C 1000.9 hPa SW 11.3 km/h 17.7 km/h 92 % 0 mm 0 W/m2
00:34 16.4 °C 15.1 °C 1000.9 hPa SW 11.3 km/h 17.7 km/h 92 % 0 mm 0 W/m2
00:39 16.4 °C 15.1 °C 1000.9 hPa SW 9.7 km/h 14.5 km/h 92 % 0 mm 0 W/m2
00:44 16.3 °C 15 °C 1000.9 hPa SW 8 km/h 12.9 km/h 92 % 0 mm 0 W/m2
00:49 16.2 °C 14.9 °C 1000.6 hPa SW 8 km/h 12.9 km/h 92 % 0 mm 0 W/m2
00:54 16.2 °C 14.9 °C 1000.6 hPa SW 8 km/h 12.9 km/h 92 % 0 mm 0 W/m2
00:59 16.1 °C 14.8 °C 1000.6 hPa WSW 8 km/h 14.5 km/h 92 % 0 mm 0 W/m2
01:04 15.9 °C 14.6 °C 1000.6 hPa WSW 8 km/h 14.5 km/h 92 % 0 mm 0 W/m2
01:09 15.8 °C 14.5 °C 1000.6 hPa WSW 9.7 km/h 19.3 km/h 92 % 0 mm 0 W/m2
01:14 15.7 °C 14.4 °C 1000.6 hPa WSW 11.3 km/h 19.3 km/h 92 % 0 mm 0 W/m2
01:19 15.7 °C 14.4 °C 1000.6 hPa WSW 11.3 km/h 17.7 km/h 92 % 0 mm 0 W/m2
01:24 15.6 °C 14.1 °C 1000.6 hPa WSW 11.3 km/h 17.7 km/h 91 % 0 mm 0 W/m2
01:29 15.6 °C 14.1 °C 1000.6 hPa WSW 11.3 km/h 16.1 km/h 91 % 0 mm 0 W/m2
01:34 15.5 °C 14.1 °C 1000.6 hPa SW 11.3 km/h 17.7 km/h 91 % 0 mm 0 W/m2
01:39 15.4 °C 13.9 °C 1000.6 hPa SW 9.7 km/h 17.7 km/h 91 % 0 mm 0 W/m2
01:44 15.3 °C 13.8 °C 1000.6 hPa SW 8 km/h 14.5 km/h 91 % 0 mm 0 W/m2
01:49 15.2 °C 13.7 °C 1000.6 hPa SW 8 km/h 14.5 km/h 91 % 0 mm 0 W/m2
01:54 15.1 °C 13.7 °C 1000.6 hPa SW 6.4 km/h 12.9 km/h 91 % 0 mm 0 W/m2
01:59 15.1 °C 13.7 °C 1000.6 hPa SW 4.8 km/h 11.3 km/h 91 % 0 mm 0 W/m2
02:04 14.9 °C 13.4 °C 1000.6 hPa SSW 1.6 km/h 11.3 km/h 91 % 0 mm 0 W/m2
02:09 14.8 °C 13.3 °C 1000.2 hPa SSW 1.6 km/h 8 km/h 91 % 0 mm 0 W/m2
02:14 14.7 °C 13.2 °C 1000.2 hPa NE 3.2 km/h 8 km/h 91 % 0 mm 0 W/m2
02:19 14.7 °C 13.2 °C 1000.2 hPa NE 4.8 km/h 8 km/h 91 % 0 mm 0 W/m2
02:24 14.6 °C 13.2 °C 1000.2 hPa NE 6.4 km/h 12.9 km/h 91 % 0 mm 0 W/m2
02:29 14.6 °C 13.2 °C 1000.2 hPa ENE 6.4 km/h 12.9 km/h 91 % 0 mm 0 W/m2
02:34 14.5 °C 13.1 °C 1000.2 hPa East 3.2 km/h 8 km/h 91 % 0 mm 0 W/m2
02:39 14.4 °C 12.9 °C 1000.2 hPa ESE 3.2 km/h 11.3 km/h 91 % 0 mm 0 W/m2
02:44 14.4 °C 12.9 °C 1000.2 hPa ESE 3.2 km/h 11.3 km/h 91 % 0 mm 0 W/m2
02:49 14.3 °C 12.8 °C 1000.2 hPa ESE 4.8 km/h 9.7 km/h 91 % 0 mm 0 W/m2
02:54 14.3 °C 12.8 °C 1000.2 hPa SE 4.8 km/h 9.7 km/h 91 % 0 mm 0 W/m2
02:59 14.3 °C 12.7 °C 1000.2 hPa South 3.2 km/h 9.7 km/h 90 % 0 mm 0 W/m2
03:04 14.3 °C 12.7 °C 1000.2 hPa SSW 3.2 km/h 11.3 km/h 90 % 0 mm 0 W/m2
03:09 14.4 °C 12.8 °C 1000.2 hPa SSW 3.2 km/h 11.3 km/h 90 % 0 mm 0 W/m2
03:14 14.4 °C 12.8 °C 999.9 hPa South 3.2 km/h 11.3 km/h 90 % 0 mm 0 W/m2
03:19 14.4 °C 12.8 °C 1000.2 hPa SSE 6.4 km/h 14.5 km/h 90 % 0 mm 0 W/m2
03:24 14.3 °C 12.7 °C 999.9 hPa SSE 6.4 km/h 14.5 km/h 90 % 0 mm 0 W/m2
03:29 14.4 °C 12.9 °C 999.9 hPa SSW 9.7 km/h 19.3 km/h 91 % 0 mm 0 W/m2
03:34 14.5 °C 12.9 °C 999.9 hPa SSW 12.9 km/h 19.3 km/h 90 % 0 mm 0 W/m2
03:39 14.6 °C 13 °C 999.9 hPa SSW 9.7 km/h 17.7 km/h 90 % 0 mm 0 W/m2
03:44 14.6 °C 13 °C 999.9 hPa SW 9.7 km/h 20.9 km/h 90 % 0 mm 0 W/m2
03:49 14.6 °C 13 °C 999.9 hPa SW 12.9 km/h 20.9 km/h 90 % 0 mm 0 W/m2
03:54 14.7 °C 13.1 °C 999.9 hPa SW 12.9 km/h 20.9 km/h 90 % 0 mm 0 W/m2
03:59 14.7 °C 12.9 °C 999.9 hPa SW 11.3 km/h 20.9 km/h 89 % 0 mm 0 W/m2
04:04 14.7 °C 12.9 °C 999.9 hPa SW 12.9 km/h 19.3 km/h 89 % 0 mm 0 W/m2
04:10 14.7 °C 13.1 °C 999.9 hPa SW 12.9 km/h 24.1 km/h 90 % 0 mm 0 W/m2
04:15 14.7 °C 13.1 °C 999.9 hPa SW 12.9 km/h 24.1 km/h 90 % 0 mm 0 W/m2
04:20 14.7 °C 12.9 °C 999.9 hPa SW 12.9 km/h 22.5 km/h 89 % 0 mm 0 W/m2
04:22 14.7 °C 13.1 °C 999.9 hPa SW 12.9 km/h 22.5 km/h 90 % 0 mm 0 W/m2
04:25 14.7 °C 13.1 °C 999.9 hPa SW 14.5 km/h 22.5 km/h 90 % 0 mm 0 W/m2
04:28 14.8 °C 13.2 °C 999.9 hPa SW 14.5 km/h 22.5 km/h 90 % 0 mm 0 W/m2
04:33 14.8 °C 13 °C 999.9 hPa SW 16.1 km/h 22.5 km/h 89 % 0 mm 0 W/m2
04:38 14.9 °C 13.1 °C 999.9 hPa SW 16.1 km/h 22.5 km/h 89 % 0 mm 0 W/m2
04:43 14.9 °C 13.3 °C 999.9 hPa SW 14.5 km/h 20.9 km/h 90 % 0 mm 0 W/m2
04:48 14.8 °C 13.2 °C 999.5 hPa SW 12.9 km/h 20.9 km/h 90 % 0 mm 0 W/m2
04:53 14.7 °C 13.1 °C 999.5 hPa SW 14.5 km/h 20.9 km/h 90 % 0 mm 0 W/m2
04:58 14.7 °C 13.2 °C 999.5 hPa SW 16.1 km/h 24.1 km/h 91 % 0 mm 0 W/m2
05:03 14.6 °C 13.2 °C 999.5 hPa SW 16.1 km/h 24.1 km/h 91 % 0 mm 0 W/m2
05:08 14.6 °C 13.2 °C 999.5 hPa SW 16.1 km/h 24.1 km/h 91 % 0 mm 0 W/m2
05:13 14.6 °C 13.2 °C 999.2 hPa SW 16.1 km/h 22.5 km/h 91 % 0 mm 0 W/m2
05:18 14.6 °C 13.2 °C 999.2 hPa SW 16.1 km/h 22.5 km/h 91 % 0 mm 0 W/m2
05:23 14.6 °C 13.2 °C 999.2 hPa SSW 17.7 km/h 32.2 km/h 91 % 0 mm 0 W/m2
05:28 14.6 °C 13.2 °C 999.2 hPa SW 17.7 km/h 32.2 km/h 91 % 0 mm 0 W/m2
05:33 14.6 °C 13.2 °C 999.2 hPa SW 17.7 km/h 29 km/h 91 % 0 mm 5 W/m2
05:38 14.7 °C 13.2 °C 999.2 hPa SW 17.7 km/h 25.7 km/h 91 % 0 mm 7 W/m2
05:43 14.7 °C 13.1 °C 999.2 hPa SW 17.7 km/h 25.7 km/h 90 % 0 mm 7 W/m2
05:48 14.7 °C 13.1 °C 999.2 hPa SW 17.7 km/h 30.6 km/h 90 % 0 mm 11 W/m2
05:53 14.7 °C 13.1 °C 999.2 hPa SSW 17.7 km/h 30.6 km/h 90 % 0 mm 14 W/m2
05:58 14.7 °C 13.1 °C 998.9 hPa SSW 19.3 km/h 32.2 km/h 90 % 0 mm 21 W/m2
06:03 14.7 °C 12.9 °C 999.2 hPa SW 19.3 km/h 32.2 km/h 89 % 0 mm 33 W/m2
06:08 14.8 °C 13 °C 999.2 hPa SW 17.7 km/h 32.2 km/h 89 % 0 mm 33 W/m2
06:14 14.8 °C 13 °C 998.9 hPa SSW 16.1 km/h 25.7 km/h 89 % 0 mm 42 W/m2
06:19 14.9 °C 13.1 °C 999.2 hPa SSW 16.1 km/h 30.6 km/h 89 % 0 mm 49 W/m2
06:24 14.9 °C 13.1 °C 998.9 hPa SSW 17.7 km/h 32.2 km/h 89 % 0 mm 60 W/m2
06:29 15.1 °C 13.1 °C 999.2 hPa SSW 17.7 km/h 32.2 km/h 88 % 0 mm 95 W/m2
06:34 15.2 °C 13.2 °C 998.9 hPa SSW 14.5 km/h 30.6 km/h 88 % 0 mm 86 W/m2
06:39 15.2 °C 13.2 °C 998.9 hPa SSW 12.9 km/h 29 km/h 88 % 0 mm 62 W/m2
06:44 15.2 °C 13.1 °C 998.9 hPa SSW 14.5 km/h 32.2 km/h 87 % 0 mm 46 W/m2
06:49 15.2 °C 13.1 °C 998.9 hPa SSW 16.1 km/h 32.2 km/h 87 % 0 mm 28 W/m2
06:54 15.2 °C 13.1 °C 998.9 hPa SSW 16.1 km/h 32.2 km/h 87 % 0 mm 44 W/m2
06:59 15.2 °C 13.2 °C 998.9 hPa SSW 17.7 km/h 35.4 km/h 88 % 0 mm 30 W/m2
07:04 15.2 °C 13.2 °C 998.5 hPa SSW 19.3 km/h 35.4 km/h 88 % 0 mm 39 W/m2
07:09 15.1 °C 13.1 °C 998.9 hPa SSW 17.7 km/h 32.2 km/h 88 % 0 mm 21 W/m2
07:14 15.1 °C 13.1 °C 998.5 hPa SSW 19.3 km/h 38.6 km/h 88 % 0 mm 30 W/m2
07:19 15.1 °C 13.1 °C 998.5 hPa SSW 19.3 km/h 38.6 km/h 88 % 0 mm 216 W/m2
07:24 15.2 °C 13.2 °C 998.5 hPa SSW 19.3 km/h 30.6 km/h 88 % 0 mm 76 W/m2
07:29 15.2 °C 13.2 °C 998.5 hPa SSW 19.3 km/h 30.6 km/h 88 % 0 mm 100 W/m2
07:34 15.4 °C 13.4 °C 998.5 hPa SSW 17.7 km/h 33.8 km/h 88 % 0 mm 279 W/m2
07:39 15.6 °C 13.4 °C 998.5 hPa SSW 19.3 km/h 40.2 km/h 87 % 0 mm 127 W/m2
07:44 15.7 °C 13.4 °C 998.5 hPa SSW 20.9 km/h 40.2 km/h 86 % 0 mm 160 W/m2
07:49 15.9 °C 13.6 °C 998.5 hPa SSW 20.9 km/h 38.6 km/h 86 % 0 mm 436 W/m2
07:54 16.2 °C 13.7 °C 998.5 hPa SSW 20.9 km/h 38.6 km/h 85 % 0 mm 144 W/m2
07:59 16.2 °C 13.3 °C 998.5 hPa SSW 22.5 km/h 40.2 km/h 83 % 0 mm 102 W/m2
08:04 16.2 °C 13.3 °C 998.5 hPa SSW 22.5 km/h 41.8 km/h 83 % 0 mm 114 W/m2
08:09 16.1 °C 13.2 °C 998.5 hPa SW 20.9 km/h 41.8 km/h 83 % 0 mm 135 W/m2
08:15 16.2 °C 13.3 °C 998.2 hPa SW 19.3 km/h 37 km/h 83 % 0 mm 492 W/m2
08:20 16.5 °C 13.4 °C 998.2 hPa SW 22.5 km/h 41.8 km/h 82 % 0 mm 494 W/m2
08:25 16.6 °C 13.3 °C 998.5 hPa SW 27.4 km/h 41.8 km/h 81 % 0 mm 387 W/m2
08:30 16.7 °C 13.2 °C 998.5 hPa SSW 30.6 km/h 49.9 km/h 80 % 0 mm 548 W/m2
08:35 16.6 °C 13.5 °C 998.5 hPa SW 30.6 km/h 49.9 km/h 82 % 0 mm 151 W/m2
08:40 16.3 °C 13.4 °C 998.5 hPa SW 25.7 km/h 46.7 km/h 83 % 0 mm 144 W/m2
08:45 16 °C 13.5 °C 998.5 hPa SW 22.5 km/h 41.8 km/h 85 % 0 mm 207 W/m2
08:50 16 °C 13.5 °C 998.5 hPa SW 20.9 km/h 32.2 km/h 85 % 0 mm 229 W/m2
08:55 16.1 °C 13.6 °C 998.5 hPa SSW 19.3 km/h 30.6 km/h 85 % 0 mm 179 W/m2
09:00 15.9 °C 13.6 °C 998.5 hPa SW 20.9 km/h 35.4 km/h 86 % 0 mm 220 W/m2
09:05 15.9 °C 13.7 °C 998.5 hPa SW 19.3 km/h 35.4 km/h 87 % 0 mm 253 W/m2
09:10 16 °C 13.7 °C 998.2 hPa SSW 17.7 km/h 30.6 km/h 86 % 0 mm 120 W/m2
09:15 16 °C 13.7 °C 998.5 hPa SW 19.3 km/h 40.2 km/h 86 % 0 mm 499 W/m2
09:20 16.3 °C 13.8 °C 998.5 hPa SW 17.7 km/h 40.2 km/h 85 % 0 mm 612 W/m2
09:25 16.6 °C 13.7 °C 998.5 hPa SW 17.7 km/h 37 km/h 83 % 0 mm 596 W/m2
09:30 16.9 °C 13.6 °C 998.5 hPa SW 19.3 km/h 37 km/h 81 % 0 mm 629 W/m2
09:35 17.2 °C 13.9 °C 998.5 hPa SW 16.1 km/h 30.6 km/h 81 % 0 mm 227 W/m2
09:40 17.4 °C 13.7 °C 998.9 hPa SW 17.7 km/h 33.8 km/h 79 % 0 mm 466 W/m2
09:46 17.6 °C 13.5 °C 998.9 hPa SW 19.3 km/h 38.6 km/h 77 % 0 mm 227 W/m2
09:51 17.5 °C 13.4 °C 998.9 hPa SW 20.9 km/h 38.6 km/h 77 % 0 mm 193 W/m2
09:56 17.6 °C 13.5 °C 998.9 hPa WSW 20.9 km/h 48.3 km/h 77 % 0 mm 457 W/m2
10:01 17.6 °C 13.5 °C 998.9 hPa WSW 19.3 km/h 48.3 km/h 77 % 0 mm 197 W/m2
10:06 17.5 °C 13.6 °C 998.9 hPa SW 16.1 km/h 32.2 km/h 78 % 0 mm 257 W/m2
10:11 17.4 °C 13.3 °C 998.9 hPa SW 17.7 km/h 32.2 km/h 77 % 0 mm 202 W/m2
10:16 17.4 °C 13.3 °C 998.9 hPa SW 20.9 km/h 35.4 km/h 77 % 0 mm 232 W/m2
10:21 17.4 °C 13.3 °C 998.9 hPa SW 20.9 km/h 38.6 km/h 77 % 0 mm 236 W/m2
10:26 17.4 °C 13.3 °C 998.9 hPa SW 20.9 km/h 38.6 km/h 77 % 0 mm 313 W/m2
10:31 17.6 °C 13.3 °C 998.9 hPa SW 20.9 km/h 38.6 km/h 76 % 0 mm 276 W/m2
10:36 17.8 °C 13.5 °C 998.5 hPa SW 20.9 km/h 40.2 km/h 76 % 0 mm 285 W/m2
10:41 17.9 °C 13.6 °C 998.9 hPa SW 22.5 km/h 40.2 km/h 76 % 0 mm 285 W/m2
10:46 18 °C 13.5 °C 998.9 hPa SW 24.1 km/h 49.9 km/h 75 % 0 mm 285 W/m2
10:51 18.1 °C 13.4 °C 998.5 hPa SW 27.4 km/h 49.9 km/h 74 % 0 mm 816 W/m2
10:56 18.3 °C 13.6 °C 998.9 hPa SW 27.4 km/h 45.1 km/h 74 % 0 mm 295 W/m2
11:01 18.4 °C 13.9 °C 998.5 hPa SW 22.5 km/h 37 km/h 75 % 0 mm 991 W/m2
11:06 18.6 °C 13.7 °C 998.5 hPa SW 22.5 km/h 40.2 km/h 73 % 0 mm 255 W/m2
11:11 18.5 °C 13.6 °C 998.5 hPa SW 24.1 km/h 40.2 km/h 73 % 0 mm 260 W/m2
11:16 18.5 °C 13.8 °C 998.9 hPa SW 24.1 km/h 40.2 km/h 74 % 0 mm 323 W/m2
11:21 18.7 °C 13.9 °C 998.9 hPa SW 20.9 km/h 40.2 km/h 74 % 0 mm 471 W/m2
11:23 18.8 °C 13.8 °C 998.9 hPa SW 20.9 km/h 37 km/h 73 % 0 mm 471 W/m2
11:28 18.8 °C 13.8 °C 998.9 hPa SW 25.7 km/h 49.9 km/h 73 % 0 mm 327 W/m2
11:33 18.9 °C 13.9 °C 998.9 hPa SW 25.7 km/h 49.9 km/h 73 % 0 mm 1020 W/m2
11:38 19.1 °C 14.2 °C 998.9 hPa SW 24.1 km/h 38.6 km/h 73 % 0 mm 1020 W/m2
11:43 19.2 °C 14.1 °C 998.9 hPa SW 24.1 km/h 41.8 km/h 72 % 0 mm 991 W/m2
11:48 19.2 °C 14.1 °C 998.9 hPa SW 25.7 km/h 41.8 km/h 72 % 0 mm 536 W/m2
11:53 19.3 °C 13.9 °C 998.9 hPa WSW 25.7 km/h 41.8 km/h 71 % 0 mm 1158 W/m2
11:58 19.6 °C 14.4 °C 998.9 hPa SW 22.5 km/h 41.8 km/h 72 % 0 mm 520 W/m2
12:03 19.7 °C 13.8 °C 998.9 hPa SW 24.1 km/h 45.1 km/h 69 % 0 mm 410 W/m2
12:08 19.7 °C 13.8 °C 998.9 hPa SW 25.7 km/h 45.1 km/h 69 % 0 mm 492 W/m2
12:13 19.3 °C 13.7 °C 998.9 hPa SW 27.4 km/h 45.1 km/h 70 % 0 mm 424 W/m2
12:18 19.4 °C 14 °C 998.9 hPa SW 27.4 km/h 46.7 km/h 71 % 0 mm 424 W/m2
12:23 19.6 °C 14 °C 998.9 hPa WSW 25.7 km/h 46.7 km/h 70 % 0 mm 355 W/m2
12:28 19.6 °C 14.2 °C 998.9 hPa WSW 25.7 km/h 46.7 km/h 71 % 0 mm 355 W/m2
12:33 19.7 °C 14.1 °C 998.9 hPa WSW 24.1 km/h 40.2 km/h 70 % 0 mm 1037 W/m2
12:38 19.9 °C 14.5 °C 998.9 hPa WSW 22.5 km/h 40.2 km/h 71 % 0 mm 1025 W/m2
12:43 19.8 °C 14.2 °C 998.9 hPa SW 24.1 km/h 46.7 km/h 70 % 0 mm 1062 W/m2
12:48 19.9 °C 14.3 °C 999.2 hPa SW 29 km/h 46.7 km/h 70 % 0 mm 1118 W/m2
12:53 20.1 °C 14.2 °C 999.2 hPa WSW 30.6 km/h 46.7 km/h 69 % 0 mm 1234 W/m2
12:58 20.1 °C 14.2 °C 998.9 hPa WSW 30.6 km/h 46.7 km/h 69 % 0 mm 369 W/m2
13:03 20.1 °C 14.2 °C 998.9 hPa WSW 29 km/h 43.5 km/h 69 % 0 mm 378 W/m2
13:08 20.3 °C 14.7 °C 998.9 hPa WSW 25.7 km/h 48.3 km/h 70 % 0 mm 946 W/m2
13:14 20.6 °C 14.3 °C 999.2 hPa WSW 27.4 km/h 48.3 km/h 67 % 0 mm 856 W/m2
13:19 20.7 °C 14.6 °C 999.2 hPa WSW 27.4 km/h 46.7 km/h 68 % 0 mm 1146 W/m2
13:23 20.8 °C 14 °C 999.2 hPa West 25.7 km/h 48.3 km/h 65 % 0 mm 984 W/m2
13:29 20.6 °C 14.3 °C 999.5 hPa West 27.4 km/h 48.3 km/h 67 % 0 mm 984 W/m2
13:34 20.8 °C 14.4 °C 999.2 hPa WSW 24.1 km/h 41.8 km/h 67 % 0 mm 1197 W/m2
13:39 21 °C 14.6 °C 999.2 hPa WSW 22.5 km/h 43.5 km/h 67 % 0 mm 1125 W/m2
13:44 21.1 °C 14.7 °C 999.5 hPa WSW 25.7 km/h 46.7 km/h 67 % 0 mm 1150 W/m2
13:49 20.8 °C 14.2 °C 999.2 hPa WSW 29 km/h 48.3 km/h 66 % 0 mm 754 W/m2
13:54 20.8 °C 14 °C 999.5 hPa WSW 29 km/h 48.3 km/h 65 % 0 mm 1039 W/m2
13:59 21.1 °C 14 °C 999.2 hPa WSW 27.4 km/h 48.3 km/h 64 % 0 mm 969 W/m2
14:04 21.3 °C 14.2 °C 999.5 hPa WSW 25.7 km/h 46.7 km/h 64 % 0 mm 986 W/m2
14:09 21.2 °C 13.9 °C 999.5 hPa WSW 29 km/h 49.9 km/h 63 % 0 mm 394 W/m2
14:14 20.9 °C 13.8 °C 999.9 hPa WSW 30.6 km/h 49.9 km/h 64 % 0 mm 366 W/m2
14:19 20.9 °C 14.6 °C 999.9 hPa West 27.4 km/h 49.9 km/h 67 % 0 mm 1123 W/m2
14:24 21.2 °C 14.8 °C 999.9 hPa WNW 20.9 km/h 41.8 km/h 67 % 0 mm 1123 W/m2
14:29 20.9 °C 14.6 °C 999.9 hPa WNW 20.9 km/h 35.4 km/h 67 % 0 mm 394 W/m2
14:34 20.8 °C 14.4 °C 999.9 hPa West 19.3 km/h 37 km/h 67 % 0 mm 413 W/m2
14:39 20.8 °C 14.4 °C 1000.2 hPa West 17.7 km/h 37 km/h 67 % 0 mm 246 W/m2
14:40 20.8 °C 14.4 °C 1000.2 hPa West 17.7 km/h 37 km/h 67 % 0 mm 207 W/m2
14:45 20.2 °C 14.3 °C 1000.6 hPa WNW 22.5 km/h 49.9 km/h 69 % 0 mm 301 W/m2
14:50 19.5 °C 14.1 °C 1000.2 hPa West 24.1 km/h 49.9 km/h 71 % 0 mm 257 W/m2
14:55 19.1 °C 13.9 °C 1000.6 hPa West 20.9 km/h 45.1 km/h 72 % 0 mm 288 W/m2
15:00 19.2 °C 14.2 °C 1000.6 hPa West 20.9 km/h 37 km/h 73 % 0 mm 1086 W/m2
15:05 19.6 °C 14.2 °C 1000.6 hPa West 20.9 km/h 37 km/h 71 % 0 mm 367 W/m2
15:10 19.6 °C 14 °C 1000.6 hPa West 22.5 km/h 38.6 km/h 70 % 0 mm 309 W/m2
15:15 19.3 °C 13.9 °C 1000.6 hPa West 22.5 km/h 38.6 km/h 71 % 0 mm 155 W/m2
15:20 19.1 °C 14.3 °C 1000.6 hPa West 19.3 km/h 37 km/h 74 % 0 mm 229 W/m2
15:25 18.7 °C 13.9 °C 1000.9 hPa West 16.1 km/h 29 km/h 74 % 0 mm 183 W/m2
15:30 18.6 °C 13.7 °C 1000.9 hPa West 17.7 km/h 35.4 km/h 73 % 0 mm 345 W/m2
15:35 18.6 °C 13.7 °C 1000.6 hPa West 17.7 km/h 35.4 km/h 73 % 0 mm 415 W/m2
15:40 18.8 °C 13.8 °C 1000.9 hPa West 14.5 km/h 30.6 km/h 73 % 0 mm 313 W/m2
15:45 19.1 °C 14.2 °C 1000.9 hPa West 12.9 km/h 20.9 km/h 73 % 0 mm 970 W/m2
15:50 19.6 °C 14.2 °C 1000.9 hPa West 12.9 km/h 25.7 km/h 71 % 0 mm 246 W/m2
15:55 19.6 °C 13.6 °C 1000.9 hPa West 19.3 km/h 46.7 km/h 68 % 0 mm 244 W/m2
16:00 19.6 °C 13.8 °C 1000.9 hPa West 19.3 km/h 46.7 km/h 69 % 0 mm 221 W/m2
16:05 19.7 °C 13.6 °C 1000.9 hPa West 16.1 km/h 35.4 km/h 68 % 0 mm 132 W/m2
16:10 19.3 °C 13.4 °C 1001.2 hPa WSW 19.3 km/h 35.4 km/h 69 % 0 mm 132 W/m2
16:15 18.9 °C 13.3 °C 1001.2 hPa SW 19.3 km/h 35.4 km/h 70 % 0 mm 123 W/m2
16:20 18.7 °C 13.6 °C 1001.2 hPa WSW 17.7 km/h 35.4 km/h 72 % 0 mm 86 W/m2
16:25 18.7 °C 13.8 °C 1001.6 hPa WSW 16.1 km/h 29 km/h 73 % 0 mm 77 W/m2
16:30 18.6 °C 13.7 °C 1001.6 hPa WSW 14.5 km/h 30.6 km/h 73 % 0 mm 162 W/m2
16:35 18.6 °C 13.7 °C 1001.6 hPa WSW 14.5 km/h 30.6 km/h 73 % 0 mm 185 W/m2
16:40 18.6 °C 13.7 °C 1001.6 hPa WSW 12.9 km/h 22.5 km/h 73 % 0 mm 172 W/m2
16:45 18.7 °C 13.6 °C 1001.6 hPa West 12.9 km/h 24.1 km/h 72 % 0 mm 97 W/m2
16:50 18.6 °C 13.7 °C 1001.6 hPa WSW 12.9 km/h 24.1 km/h 73 % 0 mm 84 W/m2
16:55 18.5 °C 13.6 °C 1001.9 hPa WSW 12.9 km/h 24.1 km/h 73 % 0 mm 65 W/m2
17:00 18.4 °C 13.3 °C 1001.9 hPa WSW 14.5 km/h 29 km/h 72 % 0 mm 86 W/m2
17:05 18.3 °C 13.4 °C 1001.9 hPa WSW 14.5 km/h 29 km/h 73 % 0 mm 139 W/m2
17:10 18.4 °C 13.4 °C 1001.9 hPa WSW 12.9 km/h 22.5 km/h 73 % 0 mm 269 W/m2
17:15 18.5 °C 13.3 °C 1001.9 hPa West 14.5 km/h 30.6 km/h 72 % 0 mm 192 W/m2
17:20 18.7 °C 13.3 °C 1001.9 hPa West 16.1 km/h 30.6 km/h 71 % 0 mm 83 W/m2
17:25 18.7 °C 13.3 °C 1001.9 hPa West 11.3 km/h 22.5 km/h 71 % 0 mm 60 W/m2
17:30 18.8 °C 13.7 °C 1001.9 hPa West 11.3 km/h 19.3 km/h 72 % 0 mm 81 W/m2
17:35 18.8 °C 13.4 °C 1001.9 hPa WSW 9.7 km/h 19.3 km/h 71 % 0 mm 102 W/m2
17:40 18.8 °C 13.4 °C 1001.9 hPa WSW 11.3 km/h 33.8 km/h 71 % 0 mm 104 W/m2
17:45 18.8 °C 13.2 °C 1001.9 hPa WSW 14.5 km/h 33.8 km/h 70 % 0 mm 104 W/m2
17:47 18.8 °C 13 °C 1001.9 hPa WSW 16.1 km/h 33.8 km/h 69 % 0 mm 100 W/m2
17:52 18.8 °C 12.8 °C 1001.9 hPa WSW 17.7 km/h 38.6 km/h 68 % 0 mm 100 W/m2
17:57 18.9 °C 12.6 °C 1001.9 hPa WSW 20.9 km/h 38.6 km/h 67 % 0 mm 102 W/m2
18:02 18.8 °C 12.8 °C 1001.9 hPa West 20.9 km/h 40.2 km/h 68 % 0 mm 95 W/m2
18:07 18.9 °C 12.9 °C 1001.9 hPa West 19.3 km/h 40.2 km/h 68 % 0 mm 72 W/m2
18:12 18.8 °C 13 °C 1002.3 hPa WSW 17.7 km/h 37 km/h 69 % 0 mm 90 W/m2
18:17 18.8 °C 12.8 °C 1002.3 hPa WSW 19.3 km/h 33.8 km/h 68 % 0 mm 74 W/m2
18:22 18.8 °C 12.8 °C 1002.3 hPa WSW 20.9 km/h 33.8 km/h 68 % 0 mm 49 W/m2
18:27 18.7 °C 13.1 °C 1002.3 hPa WSW 17.7 km/h 33.8 km/h 70 % 0 mm 47 W/m2
18:32 18.6 °C 13 °C 1002.3 hPa WSW 16.1 km/h 30.6 km/h 70 % 0 mm 47 W/m2
18:37 18.6 °C 13.2 °C 1002.3 hPa WSW 16.1 km/h 29 km/h 71 % 0 mm 37 W/m2
18:42 18.4 °C 13.3 °C 1002.3 hPa WSW 14.5 km/h 25.7 km/h 72 % 0 mm 39 W/m2
18:47 18.4 °C 13.4 °C 1002.3 hPa WSW 12.9 km/h 22.5 km/h 73 % 0 mm 53 W/m2
18:52 18.3 °C 13.6 °C 1002.3 hPa WSW 14.5 km/h 29 km/h 74 % 0 mm 37 W/m2
18:57 18.2 °C 13.5 °C 1002.3 hPa WSW 14.5 km/h 30.6 km/h 74 % 0 mm 25 W/m2
19:02 18.1 °C 13.4 °C 1002.3 hPa WSW 14.5 km/h 30.6 km/h 74 % 0 mm 18 W/m2
19:07 18.1 °C 13.4 °C 1002.6 hPa WSW 12.9 km/h 24.1 km/h 74 % 0 mm 18 W/m2
19:12 18 °C 13.5 °C 1002.6 hPa SW 11.3 km/h 20.9 km/h 75 % 0 mm 16 W/m2
19:17 17.9 °C 13.4 °C 1002.6 hPa SW 12.9 km/h 22.5 km/h 75 % 0 mm 19 W/m2
19:22 17.9 °C 13.4 °C 1002.6 hPa WSW 11.3 km/h 22.5 km/h 75 % 0 mm 19 W/m2
19:27 17.8 °C 13.3 °C 1002.6 hPa SW 12.9 km/h 25.7 km/h 75 % 0 mm 23 W/m2
19:32 17.8 °C 13.3 °C 1002.6 hPa SW 12.9 km/h 25.7 km/h 75 % 0 mm 23 W/m2
19:37 17.7 °C 13.2 °C 1002.6 hPa SW 14.5 km/h 30.6 km/h 75 % 0 mm 21 W/m2
19:42 17.6 °C 13.1 °C 1002.6 hPa SW 17.7 km/h 32.2 km/h 75 % 0 mm 19 W/m2
19:47 17.6 °C 13.3 °C 1002.6 hPa SW 20.9 km/h 33.8 km/h 76 % 0 mm 19 W/m2
19:52 17.5 °C 13.2 °C 1002.6 hPa SW 19.3 km/h 33.8 km/h 76 % 0 mm 18 W/m2
19:57 17.4 °C 13.3 °C 1002.6 hPa WSW 16.1 km/h 30.6 km/h 77 % 0 mm 16 W/m2
20:02 17.4 °C 13.3 °C 1002.6 hPa WSW 16.1 km/h 30.6 km/h 77 % 0 mm 16 W/m2
20:07 17.3 °C 13.2 °C 1002.6 hPa WSW 16.1 km/h 30.6 km/h 77 % 0 mm 16 W/m2
20:12 17.3 °C 13.2 °C 1002.6 hPa WSW 16.1 km/h 29 km/h 77 % 0 mm 14 W/m2
20:17 17.2 °C 13.1 °C 1002.6 hPa WSW 16.1 km/h 29 km/h 77 % 0 mm 12 W/m2
20:22 17.2 °C 13.3 °C 1002.9 hPa WSW 16.1 km/h 29 km/h 78 % 0 mm 11 W/m2
20:27 17.1 °C 13.2 °C 1002.9 hPa WSW 16.1 km/h 32.2 km/h 78 % 0 mm 9 W/m2
20:32 17.1 °C 13.2 °C 1002.9 hPa WSW 17.7 km/h 32.2 km/h 78 % 0 mm 7 W/m2
20:37 17.1 °C 13.2 °C 1002.9 hPa WSW 17.7 km/h 29 km/h 78 % 0 mm 7 W/m2
20:42 17 °C 13.1 °C 1002.9 hPa WSW 17.7 km/h 30.6 km/h 78 % 0 mm 7 W/m2
20:47 17 °C 13.1 °C 1002.9 hPa WSW 17.7 km/h 30.6 km/h 78 % 0 mm 5 W/m2
20:52 16.9 °C 13.1 °C 1002.9 hPa WSW 19.3 km/h 33.8 km/h 78 % 0 mm 0 W/m2
20:57 16.9 °C 13.1 °C 1002.9 hPa WSW 19.3 km/h 33.8 km/h 78 % 0 mm 0 W/m2
21:02 16.8 °C 13.1 °C 1002.9 hPa WSW 17.7 km/h 30.6 km/h 79 % 0 mm 0 W/m2
21:07 16.7 °C 13.1 °C 1002.9 hPa WSW 17.7 km/h 32.2 km/h 79 % 0 mm 0 W/m2
21:12 16.6 °C 12.9 °C 1002.9 hPa WSW 17.7 km/h 32.2 km/h 79 % 0 mm 0 W/m2
21:17 16.6 °C 12.9 °C 1002.9 hPa WSW 16.1 km/h 30.6 km/h 79 % 0 mm 0 W/m2
21:21 16.6 °C 13.1 °C 1003.3 hPa WSW 16.1 km/h 30.6 km/h 80 % 0 mm 0 W/m2
21:25 16.5 °C 13.1 °C 1003.3 hPa WSW 16.1 km/h 30.6 km/h 80 % 0 mm 0 W/m2
21:31 16.4 °C 12.9 °C 1003.3 hPa WSW 16.1 km/h 30.6 km/h 80 % 0 mm 0 W/m2
21:36 16.4 °C 12.9 °C 1003.3 hPa WSW 14.5 km/h 24.1 km/h 80 % 0 mm 0 W/m2
21:41 16.4 °C 12.9 °C 1003.3 hPa WSW 14.5 km/h 32.2 km/h 80 % 0 mm 0 W/m2
21:46 16.4 °C 12.9 °C 1003.3 hPa SW 14.5 km/h 32.2 km/h 80 % 0 mm 0 W/m2
21:51 16.3 °C 12.8 °C 1003.3 hPa SW 12.9 km/h 32.2 km/h 80 % 0 mm 0 W/m2
21:56 16.3 °C 12.8 °C 1003.3 hPa SW 12.9 km/h 22.5 km/h 80 % 0 mm 0 W/m2
22:01 16.2 °C 12.7 °C 1003.3 hPa SW 12.9 km/h 25.7 km/h 80 % 0 mm 0 W/m2
22:06 16.2 °C 12.9 °C 1003.3 hPa SW 14.5 km/h 29 km/h 81 % 0 mm 0 W/m2
22:11 16.1 °C 12.8 °C 1003.3 hPa SW 11.3 km/h 29 km/h 81 % 0 mm 0 W/m2
22:16 16.1 °C 12.8 °C 1003.3 hPa SW 9.7 km/h 19.3 km/h 81 % 0 mm 0 W/m2
22:21 16 °C 12.7 °C 1003.3 hPa SW 9.7 km/h 19.3 km/h 81 % 0 mm 0 W/m2
22:26 15.9 °C 12.8 °C 1003.3 hPa SW 11.3 km/h 22.5 km/h 82 % 0 mm 0 W/m2
22:28 15.9 °C 12.8 °C 1003.3 hPa SW 12.9 km/h 22.5 km/h 82 % 0 mm 0 W/m2
22:33 15.9 °C 12.8 °C 1003.6 hPa SW 12.9 km/h 22.5 km/h 82 % 0 mm 0 W/m2
22:35 15.8 °C 12.7 °C 1003.6 hPa SW 12.9 km/h 22.5 km/h 82 % 0 mm 0 W/m2
22:40 15.8 °C 12.7 °C 1003.6 hPa SW 9.7 km/h 20.9 km/h 82 % 0 mm 0 W/m2
22:45 15.7 °C 12.6 °C 1003.6 hPa SW 9.7 km/h 20.9 km/h 82 % 0 mm 0 W/m2
22:50 15.7 °C 12.6 °C 1003.6 hPa SW 9.7 km/h 20.9 km/h 82 % 0 mm 0 W/m2
22:55 15.6 °C 12.6 °C 1003.6 hPa SW 6.4 km/h 12.9 km/h 82 % 0 mm 0 W/m2
23:00 15.6 °C 12.7 °C 1003.6 hPa SW 6.4 km/h 12.9 km/h 83 % 0 mm 0 W/m2
23:05 15.5 °C 12.6 °C 1003.6 hPa SSW 6.4 km/h 12.9 km/h 83 % 0 mm 0 W/m2
23:10 15.5 °C 12.6 °C 1003.6 hPa SW 6.4 km/h 12.9 km/h 83 % 0 mm 0 W/m2
23:15 15.4 °C 12.5 °C 1003.6 hPa SW 6.4 km/h 17.7 km/h 83 % 0 mm 0 W/m2
23:16 15.4 °C 12.5 °C 1003.6 hPa SW 6.4 km/h 17.7 km/h 83 % 0 mm 0 W/m2
23:21 15.4 °C 12.5 °C 1003.6 hPa SW 8 km/h 17.7 km/h 83 % 0 mm 0 W/m2
23:25 15.4 °C 12.5 °C 1003.6 hPa SW 8 km/h 14.5 km/h 83 % 0 mm 0 W/m2
23:30 15.3 °C 12.4 °C 1003.3 hPa SW 9.7 km/h 16.1 km/h 83 % 0 mm 0 W/m2
23:35 15.3 °C 12.4 °C 1003.6 hPa SW 9.7 km/h 16.1 km/h 83 % 0 mm 0 W/m2
23:41 15.3 °C 12.4 °C 1003.6 hPa SW 8 km/h 16.1 km/h 83 % 0 mm 0 W/m2
23:46 15.3 °C 12.6 °C 1003.6 hPa SW 6.4 km/h 12.9 km/h 84 % 0 mm 0 W/m2
23:51 15.2 °C 12.5 °C 1003.6 hPa SW 6.4 km/h 14.5 km/h 84 % 0 mm 0 W/m2
23:56 15.2 °C 12.5 °C 1003.6 hPa SW 8 km/h 14.5 km/h 84 % 0 mm 0 W/m2
Delerius-Weather
Compliments of Weather Underground - 2.25 mb

Data updates at regular intervals.